Time;durP1;ratioP1;P1;durP2;ratioP2;P2;SDS_P1;SDS_P2;PMS_P1;PMS_P2;Temp;Humidity;BMP_temperature;BMP_pressure;BME280_temperature;BME280_humidity;BME280_pressure;Samples;Min_cycle;Max_cycle;Signal;HPM_P1;HPM_P2
2022/09/09 00:01:26;;;;;;;13.30;9.65;;;;;;;15.07;100.00;100731.41;4844519;29;20513;-78
2022/09/09 00:04:05;;;;;;;12.85;9.95;;;;;;;15.06;100.00;100737.63;4845414;29;20052;-80
2022/09/09 00:06:44;;;;;;;11.70;8.82;;;;;;;15.03;100.00;100732.38;4886827;29;20048;-79
2022/09/09 00:09:17;;;;;;;12.43;9.38;;;;;;;15.02;100.00;100738.56;4850268;29;20366;-78
2022/09/09 00:11:47;;;;;;;13.55;9.32;;;;;;;14.99;100.00;100733.34;4870983;29;20044;-79
2022/09/09 00:14:50;;;;;;;13.38;9.18;;;;;;;14.97;100.00;100732.47;4872075;29;20052;-78
2022/09/09 00:17:33;;;;;;;15.20;9.82;;;;;;;14.93;100.00;100729.00;4880063;29;20419;-80
2022/09/09 00:20:24;;;;;;;11.98;9.57;;;;;;;14.90;100.00;100730.84;4840678;29;20041;-77
2022/09/09 00:23:14;;;;;;;12.90;9.55;;;;;;;14.86;100.00;100729.13;4869926;29;20520;-78
2022/09/09 00:25:51;;;;;;;14.25;10.35;;;;;;;14.81;100.00;100727.41;4879045;29;20040;-78
2022/09/09 00:28:24;;;;;;;24.70;9.98;;;;;;;14.78;100.00;100722.19;4865663;29;20044;-77
2022/09/09 00:30:54;;;;;;;13.27;9.75;;;;;;;14.75;100.00;100722.22;4877109;29;20056;-78
2022/09/09 00:33:24;;;;;;;9.73;8.80;;;;;;;14.73;100.00;100717.84;4871475;29;20056;-78
2022/09/09 00:36:00;;;;;;;14.80;10.00;;;;;;;14.71;100.00;100707.25;4822629;29;20525;-79
2022/09/09 00:38:42;;;;;;;12.43;9.20;;;;;;;14.70;100.00;100709.94;4878332;29;20047;-77
2022/09/09 00:41:40;;;;;;;11.90;9.63;;;;;;;14.68;100.00;100715.25;4864236;29;20040;-79
2022/09/09 00:44:21;;;;;;;13.23;10.90;;;;;;;14.63;100.00;100701.22;4875157;29;20391;-78
2022/09/09 00:47:08;;;;;;;10.38;9.35;;;;;;;14.61;100.00;100706.53;4860709;29;20059;-78
2022/09/09 00:49:58;;;;;;;12.18;10.20;;;;;;;14.60;100.00;100712.72;4872662;29;20055;-79
2022/09/09 00:52:44;;;;;;;15.25;10.32;;;;;;;14.58;100.00;100713.66;4882698;29;20059;-79
2022/09/09 00:55:25;;;;;;;14.80;10.80;;;;;;;14.54;100.00;100714.56;4865998;29;20079;-79
2022/09/09 00:57:55;;;;;;;14.18;10.45;;;;;;;14.52;100.00;100719.03;4876804;29;20044;-80
2022/09/09 01:00:39;;;;;;;16.20;10.83;;;;;;;14.51;100.00;100722.56;4843903;29;20513;-78
2022/09/09 01:03:45;;;;;;;13.60;10.68;;;;;;;14.49;100.00;100714.63;4872270;29;20320;-80
2022/09/09 01:06:33;;;;;;;13.77;9.98;;;;;;;14.47;100.00;100710.25;4847365;29;20047;-78
2022/09/09 01:09:29;;;;;;;12.27;10.32;;;;;;;14.45;100.00;100720.88;4883108;29;20406;-78
2022/09/09 01:12:27;;;;;;;12.07;10.27;;;;;;;14.41;100.00;100711.22;4844801;29;20056;-78
2022/09/09 01:15:12;;;;;;;13.30;9.68;;;;;;;14.38;100.00;100704.16;4852875;29;20052;-78
2022/09/09 01:18:12;;;;;;;18.98;9.82;;;;;;;14.35;100.00;100706.88;4873026;29;20422;-78
2022/09/09 01:21:02;;;;;;;13.98;9.88;;;;;;;14.33;100.00;100707.78;4845888;29;20044;-78
2022/09/09 01:24:09;;;;;;;15.52;10.57;;;;;;;14.30;100.00;100708.72;4867272;29;20255;-78
2022/09/09 01:27:03;;;;;;;14.80;9.63;;;;;;;14.28;100.00;100705.22;4880820;29;20063;-78
2022/09/09 01:29:33;;;;;;;11.80;10.02;;;;;;;14.27;100.00;100705.25;4869158;29;20045;-78
2022/09/09 01:32:39;;;;;;;15.32;10.95;;;;;;;14.24;100.00;100703.50;4856016;29;20060;-79
2022/09/09 01:35:22;;;;;;;12.63;9.02;;;;;;;14.22;100.00;100700.88;4857856;29;20041;-78
2022/09/09 01:37:51;;;;;;;14.40;10.07;;;;;;;14.20;100.00;100693.88;4860009;29;20061;-78
2022/09/09 01:40:20;;;;;;;14.18;10.18;;;;;;;14.17;100.00;100702.72;4874383;29;20056;-78
2022/09/09 01:42:50;;;;;;;12.32;10.02;;;;;;;14.16;100.00;100695.69;4847460;29;20040;-79
2022/09/09 01:45:18;;;;;;;10.68;9.55;;;;;;;14.15;100.00;100693.91;4849738;29;20041;-79
2022/09/09 01:47:47;;;;;;;16.20;10.88;;;;;;;14.15;100.00;100690.41;4861365;29;20041;-79
2022/09/09 01:50:26;;;;;;;15.95;8.88;;;;;;;14.14;100.00;100685.97;4872417;29;20041;-79
2022/09/09 01:52:58;;;;;;;12.13;9.32;;;;;;;14.12;100.00;100687.78;4832837;29;20050;-79
2022/09/09 01:55:39;;;;;;;15.88;9.93;;;;;;;14.09;100.00;100679.88;4878249;29;20446;-78
2022/09/09 01:58:17;;;;;;;12.38;9.65;;;;;;;14.07;100.00;100684.34;4878788;29;20056;-79
2022/09/09 02:01:14;;;;;;;12.95;9.40;;;;;;;14.03;100.00;100684.38;4884369;29;20045;-79
2022/09/09 02:03:51;;;;;;;14.45;9.95;;;;;;;14.02;100.00;100674.66;4846195;29;20546;-79
2022/09/09 02:06:33;;;;;;;11.25;9.63;;;;;;;14.01;100.00;100690.59;4816224;29;20635;-79
2022/09/09 02:09:12;;;;;;;16.83;10.05;;;;;;;13.98;100.00;100686.19;4831331;29;20049;-79
2022/09/09 02:11:47;;;;;;;11.50;9.30;;;;;;;13.98;100.00;100685.31;4851062;29;20124;-78
2022/09/09 02:14:27;;;;;;;13.02;9.38;;;;;;;13.98;100.00;100691.50;4871162;29;20419;-78
2022/09/09 02:17:21;;;;;;;14.65;10.43;;;;;;;14.00;100.00;100695.00;4888889;29;20042;-78
2022/09/09 02:20:12;;;;;;;12.63;9.55;;;;;;;14.00;100.00;100695.00;4880402;29;20045;-80
2022/09/09 02:22:49;;;;;;;15.50;10.00;;;;;;;14.02;100.00;100698.50;4820474;29;20415;-78
2022/09/09 02:25:24;;;;;;;18.40;11.13;;;;;;;14.02;100.00;100698.50;4854042;29;20049;-78
2022/09/09 02:27:57;;;;;;;15.20;9.48;;;;;;;14.01;100.00;100696.75;4820530;29;20026;-78
2022/09/09 02:30:29;;;;;;;17.38;10.10;;;;;;;14.02;100.00;100695.84;4864425;29;20466;-78
2022/09/09 02:33:03;;;;;;;16.23;10.10;;;;;;;14.03;100.00;100699.41;4845435;29;20072;-78
2022/09/09 02:36:03;;;;;;;17.25;10.15;;;;;;;14.02;100.00;100692.31;4847473;29;20060;-78
2022/09/09 02:38:39;;;;;;;18.88;10.23;;;;;;;14.02;100.00;100692.31;4809594;29;20065;-78
2022/09/09 02:41:12;;;;;;;15.35;10.07;;;;;;;14.00;100.00;100692.34;4834132;29;20061;-78
2022/09/09 02:43:41;;;;;;;14.68;9.77;;;;;;;14.01;100.00;100680.88;4850546;29;20053;-79
2022/09/09 02:46:32;;;;;;;14.00;9.00;;;;;;;14.02;100.00;100682.59;4841624;29;20260;-78
2022/09/09 02:49:07;;;;;;;14.30;9.18;;;;;;;14.02;100.00;100690.53;4845729;29;20030;-79
2022/09/09 02:52:00;;;;;;;12.10;9.07;;;;;;;14.05;100.00;100684.34;4834874;29;20050;-79
2022/09/09 02:54:38;;;;;;;12.52;9.07;;;;;;;14.04;100.00;100680.84;4809040;29;20240;-78
2022/09/09 02:57:12;;;;;;;11.45;9.00;;;;;;;14.06;100.00;100688.72;4848375;29;20050;-78
2022/09/09 02:59:44;;;;;;;12.30;8.63;;;;;;;14.06;100.00;100687.88;4834199;29;20061;-78
2022/09/09 03:02:12;;;;;;;13.23;8.48;;;;;;;14.07;100.00;100695.81;4843671;29;20061;-79
2022/09/09 03:04:44;;;;;;;13.95;8.68;;;;;;;14.09;100.00;100685.19;4815223;29;20044;-78
2022/09/09 03:07:15;;;;;;;14.10;9.63;;;;;;;14.10;100.00;100685.16;4848097;29;20045;-82
2022/09/09 03:09:44;;;;;;;12.43;8.95;;;;;;;14.12;100.00;100687.78;4802965;29;20487;-80
2022/09/09 03:12:13;;;;;;;13.57;8.82;;;;;;;14.12;100.00;100687.78;4832911;29;20045;-79
2022/09/09 03:14:43;;;;;;;16.73;9.48;;;;;;;14.13;100.00;100679.81;4836120;29;20053;-78
2022/09/09 03:17:13;;;;;;;11.30;9.20;;;;;;;14.14;100.00;100680.69;4826497;29;20042;-78
2022/09/09 03:19:49;;;;;;;14.25;9.60;;;;;;;14.13;100.00;100684.25;4830870;29;20038;-78
2022/09/09 03:22:18;;;;;;;9.90;8.73;;;;;;;14.14;100.00;100681.56;4848206;29;20041;-79
2022/09/09 03:24:47;;;;;;;14.85;9.68;;;;;;;14.15;100.00;100674.50;4815905;29;20519;-78
2022/09/09 03:27:15;;;;;;;16.88;9.20;;;;;;;14.15;100.00;100677.16;4854442;29;20045;-79
2022/09/09 03:29:45;;;;;;;11.88;8.65;;;;;;;14.15;100.00;100677.16;4821033;29;20399;-78
2022/09/09 03:32:22;;;;;;;10.40;8.80;;;;;;;14.15;100.00;100678.00;4821721;29;20460;-79
2022/09/09 03:34:50;;;;;;;;;;;;;;;14.15;100.00;100677.16;4836916;29;20087;-78
2022/09/09 03:37:19;;;;;;;12.48;9.20;;;;;;;14.15;100.00;100679.78;4842407;29;19935;-78
2022/09/09 03:39:50;;;;;;;11.68;8.80;;;;;;;14.16;100.00;100681.56;4815076;29;20034;-78
2022/09/09 03:42:20;;;;;;;13.55;8.80;;;;;;;14.15;100.00;100678.00;4842851;29;20056;-79
2022/09/09 03:44:52;;;;;;;11.65;8.40;;;;;;;14.14;100.00;100675.38;4852120;29;20041;-79
2022/09/09 03:47:24;;;;;;;12.27;9.65;;;;;;;14.16;100.00;100682.44;4834197;29;20060;-79
2022/09/09 03:49:57;;;;;;;14.45;9.90;;;;;;;14.16;100.00;100687.72;4852314;29;20601;-78
2022/09/09 03:52:26;;;;;;;14.80;9.75;;;;;;;14.15;100.00;100685.97;4843227;29;20627;-78
2022/09/09 03:54:56;;;;;;;12.07;9.45;;;;;;;14.16;100.00;100681.56;4867141;29;20049;-77
2022/09/09 03:57:25;;;;;;;15.30;8.68;;;;;;;14.16;100.00;100684.22;4799096;29;20625;-77
2022/09/09 03:59:54;;;;;;;14.80;9.38;;;;;;;14.17;100.00;100684.16;4850132;29;20033;-78
2022/09/09 04:02:23;;;;;;;13.10;8.68;;;;;;;14.19;100.00;100689.44;4804371;29;20041;-79
2022/09/09 04:04:51;;;;;;;12.07;8.32;;;;;;;14.19;100.00;100695.63;4824182;29;20050;-79
2022/09/09 04:07:21;;;;;;;12.50;8.55;;;;;;;14.21;100.00;100688.53;4835976;29;20562;-78
2022/09/09 04:09:50;;;;;;;10.45;8.30;;;;;;;14.23;100.00;100689.41;4844722;29;20041;-78
2022/09/09 04:12:19;;;;;;;8.07;7.25;;;;;;;14.24;100.00;100688.47;4785766;29;20165;-78
2022/09/09 04:14:47;;;;;;;9.00;6.75;;;;;;;14.27;100.00;100681.38;4859834;29;20406;-77
2022/09/09 04:17:17;;;;;;;13.85;8.07;;;;;;;14.29;100.00;100680.47;4842089;29;20045;-78
2022/09/09 04:19:46;;;;;;;10.40;6.97;;;;;;;14.31;100.00;100681.34;4852044;29;20052;-78
2022/09/09 04:22:15;;;;;;;11.95;7.45;;;;;;;14.32;100.00;100683.06;4822398;29;20053;-79
2022/09/09 04:24:44;;;;;;;9.07;7.00;;;;;;;14.34;100.00;100688.34;4830355;29;20045;-79
2022/09/09 04:27:18;;;;;;;9.32;6.55;;;;;;;14.37;100.00;100685.66;4810113;29;20041;-78
2022/09/09 04:29:46;;;;;;;8.23;6.18;;;;;;;14.39;100.00;100686.53;4846967;29;20037;-79
2022/09/09 04:32:15;;;;;;;16.70;7.10;;;;;;;14.40;100.00;100694.44;4853433;29;20049;-78
2022/09/09 04:34:44;;;;;;;7.22;5.80;;;;;;;14.41;100.00;100685.59;4834143;29;20052;-78
2022/09/09 04:37:13;;;;;;;11.20;6.03;;;;;;;14.42;100.00;100682.03;4848422;29;20052;-79
2022/09/09 04:39:44;;;;;;;7.88;5.32;;;;;;;14.44;100.00;100692.59;4849604;29;20526;-78
2022/09/09 04:42:13;;;;;;;12.65;5.68;;;;;;;14.47;100.00;100697.00;4807403;29;20508;-79
2022/09/09 04:44:43;;;;;;;9.30;5.88;;;;;;;14.47;100.00;100695.22;4862418;29;20054;-78
2022/09/09 04:47:15;;;;;;;7.45;4.45;;;;;;;14.48;100.00;100696.97;4845177;29;20053;-78
2022/09/09 04:49:43;;;;;;;8.32;4.60;;;;;;;14.49;100.00;100704.03;4847144;29;20042;-77
2022/09/09 04:52:12;;;;;;;8.20;4.07;;;;;;;14.51;100.00;100702.22;4836315;29;20056;-79
2022/09/09 04:54:42;;;;;;;9.13;4.72;;;;;;;14.52;100.00;100703.13;4824644;29;20041;-77
2022/09/09 04:57:10;;;;;;;6.28;4.18;;;;;;;14.53;100.00;100711.03;4839188;29;20384;-78
2022/09/09 04:59:46;;;;;;;7.88;3.92;;;;;;;14.54;100.00;100717.22;4839873;29;20033;-79
2022/09/09 05:02:15;;;;;;;8.52;3.67;;;;;;;14.53;100.00;100705.72;4838529;29;20045;-78
2022/09/09 05:04:44;;;;;;;5.28;2.78;;;;;;;14.53;100.00;100704.84;4839968;29;20048;-78
2022/09/09 05:07:15;;;;;;;6.45;3.00;;;;;;;14.53;100.00;100711.03;4877407;29;20057;-79
2022/09/09 05:09:45;;;;;;;6.35;3.63;;;;;;;14.53;100.00;100707.50;4832824;29;20056;-78
2022/09/09 05:12:13;;;;;;;10.85;4.68;;;;;;;14.55;100.00;100700.41;4814555;29;20061;-79
2022/09/09 05:14:48;;;;;;;6.35;3.97;;;;;;;14.56;100.00;100700.38;4846092;29;20038;-78
2022/09/09 05:17:17;;;;;;;7.15;3.95;;;;;;;14.57;100.00;100707.50;4863271;29;20418;-79
2022/09/09 05:19:46;;;;;;;8.60;4.85;;;;;;;14.58;100.00;100703.06;4828565;29;20041;-78
2022/09/09 05:22:22;;;;;;;11.07;5.13;;;;;;;14.57;100.00;100704.84;4845874;29;20053;-78
2022/09/09 05:24:53;;;;;;;7.13;4.47;;;;;;;14.57;100.00;100698.63;4856734;29;20060;-79
2022/09/09 05:27:22;;;;;;;9.05;4.30;;;;;;;14.57;100.00;100698.63;4849177;29;20526;-77
2022/09/09 05:29:51;;;;;;;12.15;4.55;;;;;;;14.56;100.00;100694.22;4825713;29;20045;-77
2022/09/09 05:32:19;;;;;;;8.25;4.45;;;;;;;14.55;100.00;100698.63;4875004;29;20616;-80
2022/09/09 05:34:51;;;;;;;7.90;4.97;;;;;;;14.53;100.00;100699.56;4854853;29;20045;-80
2022/09/09 05:37:19;;;;;;;5.95;4.57;;;;;;;14.52;100.00;100697.81;4832268;29;20037;-79
2022/09/09 05:39:50;;;;;;;5.85;4.65;;;;;;;14.52;100.00;100708.41;4847599;29;20048;-78
2022/09/09 05:42:18;;;;;;;7.72;4.20;;;;;;;14.51;100.00;100701.34;4821035;29;20041;-80
2022/09/09 05:44:47;;;;;;;7.35;4.45;;;;;;;14.49;100.00;100708.47;4808317;29;20065;-78
2022/09/09 05:47:17;;;;;;;8.63;5.47;;;;;;;14.49;100.00;100711.97;4814026;29;20523;-79
2022/09/09 05:49:45;;;;;;;7.72;5.60;;;;;;;14.49;100.00;100719.06;4847050;29;20045;-78
2022/09/09 05:52:14;;;;;;;11.30;6.70;;;;;;;14.48;100.00;100718.19;4829641;29;20049;-79
2022/09/09 05:54:43;;;;;;;7.90;6.15;;;;;;;14.47;100.00;100719.09;4838986;29;20678;-78
2022/09/09 05:57:11;;;;;;;10.98;6.07;;;;;;;14.46;100.00;100714.69;4851387;29;20395;-79
2022/09/09 05:59:40;;;;;;;8.88;6.60;;;;;;;14.46;100.00;100719.09;4821037;29;20053;-79
2022/09/09 06:02:09;;;;;;;8.98;6.28;;;;;;;14.46;100.00;100727.94;4852698;29;20048;-78
2022/09/09 06:04:38;;;;;;;7.00;5.50;;;;;;;14.47;100.00;100721.72;4827007;29;20057;-79
2022/09/09 06:07:06;;;;;;;13.20;6.60;;;;;;;14.48;100.00;100722.59;4831459;29;20060;-79
2022/09/09 06:09:36;;;;;;;14.07;6.90;;;;;;;14.49;100.00;100724.38;4836320;29;20363;-80
2022/09/09 06:12:04;;;;;;;11.95;7.00;;;;;;;14.50;100.00;100718.16;4846784;29;20415;-77
2022/09/09 06:14:36;;;;;;;13.55;7.72;;;;;;;14.51;100.00;100720.78;4825362;29;20037;-78
2022/09/09 06:17:05;;;;;;;12.18;8.05;;;;;;;14.52;100.00;100724.34;4804639;29;20046;-78
2022/09/09 06:19:33;;;;;;;13.85;7.78;;;;;;;14.54;100.00;100735.78;4824055;29;20348;-78
2022/09/09 06:22:02;;;;;;;12.85;7.43;;;;;;;14.56;100.00;100731.34;4839870;29;20050;-78
2022/09/09 06:24:34;;;;;;;14.07;7.88;;;;;;;14.57;100.00;100727.81;4845259;29;20049;-77
2022/09/09 06:27:05;;;;;;;14.60;7.78;;;;;;;14.60;100.00;100733.06;4833886;29;20049;-79
2022/09/09 06:29:36;;;;;;;11.82;6.82;;;;;;;14.61;100.00;100732.16;4823958;29;20056;-78
2022/09/09 06:32:04;;;;;;;11.82;7.00;;;;;;;14.63;100.00;100738.34;4800300;29;20046;-77
2022/09/09 06:34:35;;;;;;;10.95;6.55;;;;;;;14.65;100.00;100739.19;4805151;29;20053;-78
2022/09/09 06:37:05;;;;;;;9.68;6.70;;;;;;;14.68;100.00;100735.59;4837104;29;20037;-78
2022/09/09 06:39:39;;;;;;;8.98;6.93;;;;;;;14.68;100.00;100736.47;4827145;29;20073;-78
2022/09/09 06:42:08;;;;;;;11.73;7.80;;;;;;;14.69;100.00;100737.34;4802448;29;20048;-79
2022/09/09 06:45:00;;;;;;;10.80;6.72;;;;;;;14.71;100.00;100738.22;4850539;29;20064;-81
2022/09/09 06:47:36;;;;;;;9.40;7.18;;;;;;;14.72;100.00;100738.16;4791033;29;20050;-81
2022/09/09 06:50:07;;;;;;;9.30;6.78;;;;;;;14.74;100.00;100740.81;4846391;29;20049;-80
2022/09/09 06:52:36;;;;;;;8.60;7.03;;;;;;;14.76;100.00;100746.97;4823024;29;20719;-80
2022/09/09 06:55:05;;;;;;;11.55;7.32;;;;;;;14.76;100.00;100734.59;4828138;29;20041;-81
2022/09/09 06:57:35;;;;;;;10.63;6.78;;;;;;;14.78;100.00;100735.44;4832372;29;20054;-81
2022/09/09 07:00:13;;;;;;;10.45;6.80;;;;;;;14.83;100.00;100743.31;4840417;29;20046;-81
2022/09/09 07:02:42;;;;;;;7.13;6.43;;;;;;;14.86;100.00;100734.41;4828166;29;20044;-79
2022/09/09 07:05:12;;;;;;;6.45;5.75;;;;;;;14.89;100.00;100737.91;4845625;29;20610;-79
2022/09/09 07:07:43;;;;;;;10.15;6.70;;;;;;;14.93;100.00;100736.06;4824060;29;20267;-78
2022/09/09 07:10:13;;;;;;;9.93;6.25;;;;;;;14.98;100.00;100735.09;4845982;29;20037;-79
2022/09/09 07:12:41;;;;;;;10.38;6.40;;;;;;;15.05;100.00;100737.63;4827144;29;20374;-79
2022/09/09 07:15:12;;;;;;;8.57;6.80;;;;;;;15.12;100.00;100747.25;4846404;29;20348;-79
2022/09/09 07:17:46;;;;;;;10.77;6.60;;;;;;;15.18;100.00;100732.09;4821883;29;20072;-78
2022/09/09 07:20:15;;;;;;;8.07;6.97;;;;;;;15.26;100.00;100739.06;4860418;29;20050;-77
2022/09/09 07:22:44;;;;;;;9.77;6.68;;;;;;;15.32;100.00;100734.50;4827405;29;20169;-77
2022/09/09 07:25:16;;;;;;;6.93;5.55;;;;;;;15.40;100.00;100737.88;4848316;29;20052;-78
2022/09/09 07:27:47;;;;;;;6.72;5.75;;;;;;;15.45;100.00;100732.50;4868518;29;20355;-78
2022/09/09 07:30:19;;;;;;;7.80;5.85;;;;;;;15.58;100.00;100738.47;4850587;29;20060;-78
2022/09/09 07:32:56;;;;;;;7.32;5.90;;;;;;;15.73;100.00;100729.31;4891313;29;20040;-78
2022/09/09 07:35:26;;;;;;;6.93;5.65;;;;;;;15.95;100.00;100736.00;4839635;29;20052;-77
2022/09/09 07:37:55;;;;;;;7.57;5.38;;;;;;;16.19;100.00;100728.38;4824579;29;20071;-79
2022/09/09 07:40:24;;;;;;;7.20;5.15;;;;;;;16.43;100.00;100731.41;4859848;29;20041;-78
2022/09/09 07:42:55;;;;;;;6.97;4.70;;;;;;;16.63;100.00;100722.97;4859825;29;20045;-79
2022/09/09 07:45:24;;;;;;;6.37;5.13;;;;;;;16.80;100.00;100723.41;4875725;29;20045;-79
2022/09/09 07:47:53;;;;;;;6.68;4.72;;;;;;;17.07;100.00;100731.66;4873682;29;20415;-78
2022/09/09 07:50:23;;;;;;;9.40;5.80;;;;;;;17.30;100.00;100733.75;4809152;29;20052;-77
2022/09/09 07:52:53;;;;;;;6.07;4.75;;;;;;;17.46;100.00;100743.06;4850762;29;20045;-77
2022/09/09 07:55:26;;;;;;;4.65;4.18;;;;;;;17.54;100.00;100741.06;4845000;29;20060;-78
2022/09/09 07:57:55;;;;;;;8.70;5.38;;;;;;;17.54;100.00;100737.50;4846968;29;20041;-78
2022/09/09 08:00:25;;;;;;;6.57;5.00;;;;;;;17.51;100.00;100740.28;4836843;29;20052;-77
2022/09/09 08:02:56;;;;;;;5.43;4.78;;;;;;;17.47;100.00;100730.63;4857665;29;20041;-77
2022/09/09 08:05:28;;;;;;;10.90;5.65;;;;;;;17.43;100.00;100739.59;4842077;29;20064;-77
2022/09/09 08:07:57;;;;;;;6.95;4.80;;;;;;;17.37;100.00;100743.28;4859945;29;20064;-77
2022/09/09 08:10:25;;;;;;;6.75;5.00;;;;;;;17.29;100.00;100738.16;4863343;29;20041;-78
2022/09/09 08:12:55;;;;;;;5.32;4.70;;;;;;;17.23;100.00;100732.16;4875730;29;20036;-78
2022/09/09 08:15:44;;;;;;;5.88;4.45;;;;;;;17.21;100.00;100732.19;4868206;29;20430;-78
2022/09/09 08:18:14;;;;;;;5.72;4.90;;;;;;;17.22;100.00;100744.59;4868848;29;20076;-78
2022/09/09 08:20:42;;;;;;;9.10;4.70;;;;;;;17.27;100.00;100742.66;4842081;29;20204;-77
2022/09/09 08:23:11;;;;;;;6.10;5.35;;;;;;;17.41;100.00;100744.09;4867403;29;20045;-77
2022/09/09 08:25:40;;;;;;;6.22;4.60;;;;;;;17.57;100.00;100744.56;4850591;29;20361;-79
2022/09/09 08:28:10;;;;;;;5.97;4.22;;;;;;;17.76;100.00;100751.13;4830474;29;20033;-78
2022/09/09 08:30:38;;;;;;;4.30;3.90;;;;;;;17.87;100.00;100746.41;4859701;29;20037;-78
2022/09/09 08:33:09;;;;;;;6.90;3.80;;;;;;;17.99;100.00;100752.28;4871944;29;20405;-78
2022/09/09 08:35:38;;;;;;;5.55;3.90;;;;;;;18.06;100.00;100749.41;4847097;29;20048;-77
2022/09/09 08:38:07;;;;;;;5.77;3.47;;;;;;;18.15;100.00;100750.94;4866093;29;20041;-78
2022/09/09 08:40:47;;;;;;;6.93;3.97;;;;;;;18.20;100.00;100759.66;4816846;29;20782;-77
2022/09/09 08:43:20;;;;;;;8.70;4.20;;;;;;;18.16;100.00;100754.47;4884029;29;20250;-79
2022/09/09 08:46:11;;;;;;;5.30;4.20;;;;;;;18.21;100.00;100757.88;4849426;29;20040;-77
2022/09/09 08:48:52;;;;;;;4.35;3.92;;;;;;;18.29;100.00;100750.50;4860032;29;20271;-77
2022/09/09 08:51:21;;;;;;;7.55;4.50;;;;;;;18.30;100.00;100763.81;4856717;29;20045;-78
2022/09/09 08:53:51;;;;;;;4.82;3.70;;;;;;;18.26;100.00;100756.81;4826418;29;20067;-79
2022/09/09 08:56:31;;;;;;;4.35;3.72;;;;;;;18.31;100.00;100764.66;4852941;29;20375;-78
2022/09/09 08:59:03;;;;;;;6.88;3.83;;;;;;;18.29;100.00;100764.72;4872319;29;20414;-78
2022/09/09 09:02:01;;;;;;;6.60;3.55;;;;;;;18.35;100.00;100757.44;4861072;29;20049;-78
2022/09/09 09:04:58;;;;;;;5.63;3.55;;;;;;;18.39;100.00;100754.66;4870304;29;20030;-78
2022/09/09 09:07:53;;;;;;;3.00;2.70;;;;;;;18.48;100.00;100758.81;4870004;29;20044;-78
2022/09/09 09:10:35;;;;;;;6.25;3.42;;;;;;;18.49;100.00;100763.25;4879099;29;20036;-78
2022/09/09 09:13:38;;;;;;;6.25;3.55;;;;;;;18.45;100.00;100767.81;4900468;29;20047;-78
2022/09/09 09:16:33;;;;;;;6.72;3.30;;;;;;;18.39;100.00;100764.44;4879279;29;20063;-79
2022/09/09 09:19:08;;;;;;;4.82;3.00;;;;;;;18.30;100.00;100770.94;4882683;29;20063;-78
2022/09/09 09:21:43;;;;;;;7.30;3.30;;;;;;;18.23;100.00;100774.69;4891856;29;20040;-78
2022/09/09 09:24:24;;;;;;;5.18;3.03;;;;;;;18.18;100.00;100785.50;4894396;29;20035;-79
2022/09/09 09:26:53;;;;;;;5.78;3.25;;;;;;;18.18;100.00;100777.50;4892234;29;20051;-77
2022/09/09 09:29:25;;;;;;;4.13;2.95;;;;;;;18.16;100.00;100779.31;4894770;29;20053;-78
2022/09/09 09:31:58;;;;;;;4.38;2.92;;;;;;;18.11;100.00;100778.63;4895660;29;20070;-78
2022/09/09 09:34:28;;;;;;;4.82;3.42;;;;;;;18.09;100.00;100775.09;4881610;29;20046;-78
2022/09/09 09:37:03;;;;;;;9.45;3.45;;;;;;;18.11;100.00;100778.63;4897787;29;20054;-77
2022/09/09 09:39:37;;;;;;;8.48;4.00;;;;;;;18.19;100.00;100779.25;4864338;29;20067;-78
2022/09/09 09:42:32;;;;;;;3.78;3.47;;;;;;;18.26;100.00;100766.59;4875997;29;20052;-79
2022/09/09 09:45:18;;;;;;;6.30;4.00;;;;;;;18.31;100.00;100773.53;4882367;29;20044;-78
2022/09/09 09:48:02;;;;;;;4.53;3.97;;;;;;;18.37;100.00;100779.63;4860329;29;20060;-79
2022/09/09 09:50:49;;;;;;;4.75;3.78;;;;;;;18.42;100.00;100781.22;4890428;29;20055;-77
2022/09/09 09:53:29;;;;;;;5.25;3.33;;;;;;;18.49;100.00;100785.47;4903933;29;20052;-77
2022/09/09 09:56:06;;;;;;;5.25;3.47;;;;;;;18.55;100.00;100779.06;4896067;29;20040;-77
2022/09/09 09:58:44;;;;;;;3.80;3.10;;;;;;;18.63;100.00;100779.69;4867805;29;20056;-77
2022/09/09 10:01:26;;;;;;;4.13;3.30;;;;;;;18.75;100.00;100782.88;4897058;29;20037;-78
2022/09/09 10:04:14;;;;;;;3.30;3.00;;;;;;;18.81;100.00;100780.94;4903024;29;20052;-77
2022/09/09 10:06:44;;;;;;;3.58;3.22;;;;;;;18.83;100.00;100783.56;4881850;29;20566;-79
2022/09/09 10:09:25;;;;;;;5.80;3.20;;;;;;;18.95;100.00;100787.63;4867211;29;20045;-79
2022/09/09 10:12:18;;;;;;;8.60;3.17;;;;;;;19.06;100.00;100786.34;4881851;29;20514;-79
2022/09/09 10:15:32;;;;;;;4.57;3.17;;;;;;;19.18;100.00;100789.53;4868981;29;20260;-79
2022/09/09 10:18:23;;;;;;;3.83;2.53;;;;;;;19.34;100.00;100788.09;4885031;29;20514;-78
2022/09/09 10:21:09;;;;;;;5.30;2.78;;;;;;;19.56;100.00;100779.34;4903734;29;20055;-78
2022/09/09 10:24:02;;;;;;;4.70;3.03;;;;;;;19.79;100.00;100784.78;4886293;29;20232;-78
2022/09/09 10:26:55;;;;;;;5.18;2.72;;;;;;;19.97;100.00;100780.53;4863388;29;20056;-79
2022/09/09 10:30:08;;;;;;;4.68;2.50;;;;;;;20.14;100.00;100781.72;4859246;29;20055;-79
2022/09/09 10:33:03;;;;;;;7.07;2.10;;;;;;;20.13;100.00;100786.22;4898057;29;20276;-78
2022/09/09 10:36:08;;;;;;;5.95;2.47;;;;;;;20.00;100.00;100784.91;4870556;29;20557;-79
2022/09/09 10:38:43;;;;;;;7.32;2.42;;;;;;;19.93;100.00;100789.63;4835440;29;20303;-79
2022/09/09 10:41:27;;;;;;;8.65;2.78;;;;;;;19.84;100.00;100793.47;4865611;29;20061;-78
2022/09/09 10:44:06;;;;;;;6.22;2.45;;;;;;;19.72;100.00;100793.94;4888612;29;20059;-77
2022/09/09 10:46:40;;;;;;;6.70;2.08;;;;;;;19.70;100.00;100785.06;4873242;29;20164;-78
2022/09/09 10:50:03;;;;;;;7.97;2.92;;;;;;;19.74;100.00;100784.06;4914650;29;20053;-78
2022/09/09 10:53:13;;;;;;;7.13;1.92;;;;;;;19.80;100.00;100783.84;4879796;29;20032;-79
2022/09/09 10:56:01;;;;;;;8.77;2.45;;;;;;;19.94;100.00;100783.31;4864461;29;20041;-79
2022/09/09 10:58:44;;;;;;;6.05;1.83;;;;;;;20.08;100.00;100777.47;4900721;29;20033;-78
2022/09/09 11:01:24;;;;;;;9.75;2.15;;;;;;;20.21;100.00;100777.91;4886169;29;20474;-77
2022/09/09 11:04:01;;;;;;;6.43;2.45;;;;;;;20.34;100.00;100784.53;4887027;29;20064;-77
2022/09/09 11:06:37;;;;;;;5.07;2.00;;;;;;;20.47;100.00;100778.69;4875047;29;20060;-78
2022/09/09 11:09:06;;;;;;;9.52;2.10;;;;;;;20.57;100.00;100785.44;4871097;29;20045;-77
2022/09/09 11:11:43;;;;;;;6.43;2.08;;;;;;;20.65;100.00;100778.00;4862463;29;20521;-78
2022/09/09 11:14:28;;;;;;;5.45;2.38;;;;;;;20.71;100.00;100777.75;4909346;29;20048;-79
2022/09/09 11:17:04;;;;;;;8.27;2.13;;;;;;;20.62;100.00;100787.03;4875035;29;20239;-77
2022/09/09 11:19:39;;;;;;;8.23;2.28;;;;;;;20.48;100.00;100783.97;4905399;29;20041;-77
2022/09/09 11:22:26;;;;;;;9.15;1.95;;;;;;;20.37;100.00;100780.84;4886479;29;20662;-76
2022/09/09 11:24:57;;;;;;;7.72;2.30;;;;;;;20.32;100.00;100781.03;4911339;29;20044;-76
2022/09/09 11:27:44;;;;;;;10.32;2.83;;;;;;;20.41;100.00;100775.31;4884167;29;20057;-77
2022/09/09 11:30:20;;;;;;;7.47;1.92;;;;;;;20.59;100.00;100784.44;4887696;29;20029;-78
2022/09/09 11:33:24;;;;;;;6.78;2.10;;;;;;;20.78;100.00;100783.72;4901736;29;20056;-78
2022/09/09 11:36:14;;;;;;;5.20;1.83;;;;;;;20.87;100.00;100783.38;4879200;29;20265;-78
2022/09/09 11:38:51;;;;;;;8.07;1.83;;;;;;;20.77;100.00;100787.34;4889868;29;20052;-78
2022/09/09 11:41:21;;;;;;;4.05;1.88;;;;;;;20.71;100.00;100782.22;4905461;29;20048;-78
2022/09/09 11:43:54;;;;;;;6.85;1.55;;;;;;;20.67;100.00;100780.63;4857755;29;20473;-78
2022/09/09 11:46:37;;;;;;;5.88;1.88;;;;;;;20.61;100.00;100782.59;4892652;29;20060;-80
2022/09/09 11:49:28;;;;;;;3.53;1.95;;;;;;;20.57;100.00;100780.09;4905534;29;20044;-79
2022/09/09 11:51:56;;;;;;;6.78;2.15;;;;;;;20.45;100.00;100773.38;4876226;29;20046;-76
2022/09/09 11:54:30;;;;;;;7.13;1.70;;;;;;;20.34;100.00;100778.28;4842059;29;20056;-77